createdAt,value
2022-10-10T00:00:08.693Z,9.38
2022-10-10T00:02:37.533Z,9.39
2022-10-10T00:05:07.488Z,9.34
2022-10-10T00:07:35.196Z,9.39
2022-10-10T00:10:03.934Z,9.38
2022-10-10T00:12:31.526Z,9.47
2022-10-10T00:14:59.160Z,9.46
2022-10-10T00:17:26.764Z,9.45
2022-10-10T00:19:54.447Z,9.41
2022-10-10T00:22:24.444Z,9.41
2022-10-10T00:24:52.146Z,9.30
2022-10-10T00:27:19.768Z,9.33
2022-10-10T00:29:47.357Z,9.30
2022-10-10T00:32:15.068Z,9.20
2022-10-10T00:34:42.708Z,9.25
2022-10-10T00:37:10.352Z,9.23
2022-10-10T00:39:39.284Z,9.17
2022-10-10T00:42:07.348Z,9.18
2022-10-10T00:44:35.170Z,9.21
2022-10-10T00:47:02.750Z,9.25
2022-10-10T00:49:31.896Z,9.20
2022-10-10T00:52:01.169Z,9.11
2022-10-10T00:54:30.167Z,9.11
2022-10-10T00:57:05.137Z,9.14
2022-10-10T00:59:34.879Z,9.15
2022-10-10T01:02:02.737Z,9.13
2022-10-10T01:04:33.624Z,9.11
2022-10-10T01:07:04.617Z,9.07
2022-10-10T01:09:33.510Z,9.10
2022-10-10T01:12:17.229Z,9.07
2022-10-10T01:14:52.927Z,9.07
2022-10-10T01:17:27.238Z,9.17
2022-10-10T01:20:28.952Z,9.15
2022-10-10T01:23:36.935Z,9.12
2022-10-10T01:26:19.756Z,9.18
2022-10-10T01:28:56.315Z,9.10
2022-10-10T01:31:26.495Z,9.03
2022-10-10T01:34:05.026Z,9.02
2022-10-10T01:36:39.955Z,9.01
2022-10-10T01:39:14.713Z,8.95
2022-10-10T01:41:48.576Z,8.91
2022-10-10T01:44:20.619Z,8.85
2022-10-10T01:46:48.439Z,8.76
2022-10-10T01:49:16.435Z,8.84
2022-10-10T01:51:58.070Z,8.75
2022-10-10T01:54:40.433Z,8.79
2022-10-10T01:57:20.661Z,8.75
2022-10-10T02:00:01.602Z,8.74
2022-10-10T02:02:40.621Z,8.75
2022-10-10T02:05:16.471Z,8.67
2022-10-10T02:07:49.806Z,8.54
2022-10-10T02:10:22.478Z,8.48
2022-10-10T02:12:51.584Z,8.40
2022-10-10T02:15:23.782Z,8.40
2022-10-10T02:17:53.987Z,8.40
2022-10-10T02:20:26.757Z,8.42
2022-10-10T02:22:55.652Z,8.53
2022-10-10T02:25:27.769Z,8.60
2022-10-10T02:28:05.491Z,8.56
2022-10-10T02:30:37.617Z,8.43
2022-10-10T02:33:08.397Z,8.39
2022-10-10T02:35:41.389Z,8.34
2022-10-10T02:38:12.065Z,8.26
2022-10-10T02:40:42.443Z,8.33
2022-10-10T02:43:12.016Z,8.32
2022-10-10T02:45:42.591Z,8.23
2022-10-10T02:48:10.626Z,8.20
2022-10-10T02:50:38.544Z,8.17
2022-10-10T02:53:06.207Z,8.20
2022-10-10T02:55:33.846Z,8.18
2022-10-10T02:58:01.486Z,8.12
2022-10-10T03:00:29.174Z,8.16
2022-10-10T03:02:58.266Z,8.21
2022-10-10T03:05:25.849Z,8.16
2022-10-10T03:07:53.531Z,8.23
2022-10-10T03:10:21.179Z,8.21
2022-10-10T03:12:49.217Z,8.11
2022-10-10T03:15:17.278Z,8.03
2022-10-10T03:17:45.331Z,8.00
2022-10-10T03:20:14.227Z,7.94
2022-10-10T03:22:41.790Z,7.89
2022-10-10T03:25:09.705Z,7.91
2022-10-10T03:27:37.342Z,8.05
2022-10-10T03:30:06.034Z,8.01
2022-10-10T03:32:33.668Z,7.96
2022-10-10T03:35:01.290Z,8.01
2022-10-10T03:37:30.252Z,8.02
2022-10-10T03:39:57.843Z,7.98
2022-10-10T03:42:25.682Z,7.97
2022-10-10T03:44:53.254Z,7.91
2022-10-10T03:47:20.986Z,7.93
2022-10-10T03:49:48.721Z,7.83
2022-10-10T03:52:16.532Z,7.84
2022-10-10T03:54:45.496Z,7.93
2022-10-10T03:57:13.076Z,7.82
2022-10-10T03:59:40.650Z,7.76
2022-10-10T04:02:08.515Z,7.72
2022-10-10T04:04:36.502Z,7.75
2022-10-10T04:07:04.091Z,7.75
2022-10-10T04:09:31.796Z,7.73
2022-10-10T04:12:01.646Z,7.69
2022-10-10T04:14:29.280Z,7.67
2022-10-10T04:16:59.758Z,7.61
2022-10-10T04:19:30.736Z,7.55
2022-10-10T04:21:58.406Z,7.53
2022-10-10T04:24:26.104Z,7.51
2022-10-10T04:26:53.805Z,7.59
2022-10-10T04:29:22.755Z,7.52
2022-10-10T04:31:50.369Z,7.51
2022-10-10T04:34:18.052Z,7.56
2022-10-10T04:36:45.641Z,7.59
2022-10-10T04:39:13.234Z,7.68
2022-10-10T04:41:40.937Z,7.64
2022-10-10T04:44:08.556Z,7.53
2022-10-10T04:46:37.600Z,7.51
2022-10-10T04:49:05.259Z,7.50
2022-10-10T04:51:32.981Z,7.55
2022-10-10T04:54:00.676Z,7.59
2022-10-10T04:56:28.616Z,7.63
2022-10-10T04:58:56.339Z,7.63
2022-10-10T05:01:24.114Z,7.61
2022-10-10T05:03:53.423Z,7.60
2022-10-10T05:06:21.138Z,7.65
2022-10-10T05:08:48.764Z,7.65
2022-10-10T05:11:16.524Z,7.62
2022-10-10T05:13:44.155Z,7.59
2022-10-10T05:16:12.151Z,7.54
2022-10-10T05:18:39.894Z,7.50
2022-10-10T05:21:10.824Z,7.45
2022-10-10T05:23:41.280Z,7.46
2022-10-10T05:26:09.786Z,7.47
2022-10-10T05:28:38.366Z,7.52
2022-10-10T05:31:06.887Z,7.55
2022-10-10T05:33:36.042Z,7.59
2022-10-10T05:36:06.161Z,7.59
2022-10-10T05:38:36.335Z,7.64
2022-10-10T05:41:04.425Z,7.62
2022-10-10T05:43:32.228Z,7.76
2022-10-10T05:45:59.883Z,7.67
2022-10-10T05:48:27.533Z,7.70
2022-10-10T05:50:56.773Z,7.86
2022-10-10T05:53:25.553Z,8.00
2022-10-10T05:55:54.811Z,8.21
2022-10-10T05:58:22.490Z,8.59
2022-10-10T06:00:50.527Z,8.91
2022-10-10T06:03:18.371Z,9.07
2022-10-10T06:05:48.709Z,9.09
2022-10-10T06:08:16.439Z,9.28
2022-10-10T06:10:46.895Z,9.28
2022-10-10T06:13:21.608Z,9.18
2022-10-10T06:15:52.700Z,9.06
2022-10-10T06:18:20.440Z,9.13
2022-10-10T06:20:48.038Z,9.24
2022-10-10T06:23:16.375Z,9.32
2022-10-10T06:25:44.043Z,9.28
2022-10-10T06:28:12.060Z,9.38
2022-10-10T06:30:48.351Z,9.92
2022-10-10T06:33:18.516Z,10.78
2022-10-10T06:35:47.891Z,12.10
2022-10-10T06:38:17.318Z,12.30
2022-10-10T06:40:45.231Z,13.19
2022-10-10T06:43:14.842Z,14.03
2022-10-10T06:45:46.198Z,13.53
2022-10-10T06:48:16.530Z,14.67
2022-10-10T06:50:55.966Z,14.97
2022-10-10T06:53:23.512Z,15.18
2022-10-10T06:55:51.187Z,15.02
2022-10-10T06:58:18.781Z,15.59
2022-10-10T07:00:51.878Z,15.58
2022-10-10T07:03:19.864Z,16.11
2022-10-10T07:05:51.132Z,16.82
2022-10-10T07:08:18.912Z,17.59
2022-10-10T07:10:47.148Z,17.48
2022-10-10T07:13:15.086Z,17.02
2022-10-10T07:15:43.677Z,15.88
2022-10-10T07:18:13.016Z,14.95
2022-10-10T07:20:41.395Z,14.03
2022-10-10T07:23:09.196Z,13.33
2022-10-10T07:25:39.291Z,13.45
2022-10-10T07:28:07.391Z,13.71
2022-10-10T07:30:41.011Z,13.51
2022-10-10T07:33:08.610Z,14.46
2022-10-10T07:35:37.760Z,15.62
2022-10-10T07:38:05.534Z,15.37
2022-10-10T07:40:33.383Z,14.42
2022-10-10T07:43:01.203Z,14.35
2022-10-10T07:45:28.885Z,13.76
2022-10-10T07:47:56.466Z,13.56
2022-10-10T07:50:25.957Z,12.90
2022-10-10T07:52:58.171Z,13.23
2022-10-10T07:55:26.857Z,14.04
2022-10-10T07:57:54.814Z,14.06
2022-10-10T08:00:22.750Z,14.52
2022-10-10T08:02:52.064Z,14.54
2022-10-10T08:05:19.739Z,13.59
2022-10-10T08:07:50.361Z,13.46
2022-10-10T08:10:19.901Z,13.57
2022-10-10T08:12:47.618Z,13.61
2022-10-10T08:15:15.294Z,14.39
2022-10-10T08:17:43.016Z,14.27
2022-10-10T08:20:11.336Z,14.80
2022-10-10T08:22:38.952Z,15.11
2022-10-10T08:25:08.037Z,15.69
2022-10-10T08:27:37.546Z,16.35
2022-10-10T08:30:06.177Z,16.49
2022-10-10T08:32:34.228Z,16.38
2022-10-10T08:35:02.013Z,15.86
2022-10-10T08:37:35.261Z,16.30
2022-10-10T08:40:06.850Z,16.31
2022-10-10T08:42:46.923Z,16.26
2022-10-10T08:45:20.684Z,15.15
2022-10-10T08:47:53.765Z,14.98
2022-10-10T08:50:26.181Z,14.51
2022-10-10T08:52:59.289Z,14.84
2022-10-10T08:55:33.104Z,15.13
2022-10-10T08:58:06.923Z,15.13
2022-10-10T09:00:41.067Z,15.42
2022-10-10T09:03:20.546Z,15.47
2022-10-10T09:06:04.957Z,15.57
2022-10-10T09:08:46.715Z,15.61
2022-10-10T09:11:26.653Z,15.42
2022-10-10T09:14:07.707Z,15.62
2022-10-10T09:16:41.172Z,15.60
2022-10-10T09:19:24.521Z,15.47
2022-10-10T09:21:56.152Z,15.45
2022-10-10T09:24:28.450Z,15.30
2022-10-10T09:27:02.096Z,15.52
2022-10-10T09:29:38.998Z,15.74
2022-10-10T09:32:13.211Z,15.58
2022-10-10T09:34:44.472Z,15.64
2022-10-10T09:37:29.477Z,15.86
2022-10-10T09:40:13.290Z,15.98
2022-10-10T09:42:52.284Z,15.74
2022-10-10T09:45:21.880Z,15.45
2022-10-10T09:47:54.172Z,15.58
2022-10-10T09:50:23.306Z,15.72
2022-10-10T09:52:52.743Z,15.87
2022-10-10T09:55:26.416Z,16.09
2022-10-10T09:57:59.098Z,16.06
2022-10-10T10:00:34.138Z,16.07
2022-10-10T10:03:07.695Z,15.74
2022-10-10T10:05:36.213Z,15.69
2022-10-10T10:08:03.936Z,15.62
2022-10-10T10:10:36.543Z,15.84
2022-10-10T10:13:14.347Z,16.26
2022-10-10T10:15:50.197Z,16.70
2022-10-10T10:18:27.705Z,17.02
2022-10-10T10:21:10.113Z,17.36
2022-10-10T10:23:43.510Z,17.86
2022-10-10T10:26:19.900Z,17.55
2022-10-10T10:28:50.444Z,17.68
2022-10-10T10:31:29.033Z,17.74
2022-10-10T10:34:07.740Z,17.31
2022-10-10T10:36:46.113Z,17.50
2022-10-10T10:39:27.397Z,17.68
2022-10-10T10:42:01.194Z,17.44
2022-10-10T10:44:40.967Z,17.52
2022-10-10T10:47:23.250Z,17.48
2022-10-10T10:50:07.001Z,17.39
2022-10-10T10:52:49.136Z,17.33
2022-10-10T10:55:26.949Z,17.32
2022-10-10T10:58:49.148Z,17.46
2022-10-10T11:01:38.612Z,17.33
2022-10-10T11:05:19.929Z,17.33
2022-10-10T11:07:17.864Z,17.47
2022-10-10T11:09:50.828Z,17.80
2022-10-10T11:12:38.764Z,17.77
2022-10-10T11:15:14.167Z,17.64
2022-10-10T11:17:48.169Z,17.76
2022-10-10T11:20:24.510Z,17.58
2022-10-10T11:22:59.587Z,17.63
2022-10-10T11:25:30.506Z,17.60
2022-10-10T11:28:05.214Z,17.47
2022-10-10T11:30:37.206Z,17.30
2022-10-10T11:33:13.603Z,17.42
2022-10-10T11:35:45.605Z,17.60
2022-10-10T11:38:21.532Z,17.64
2022-10-10T11:40:55.978Z,17.75
2022-10-10T11:43:35.971Z,17.62
2022-10-10T11:46:17.276Z,17.69
2022-10-10T11:48:55.664Z,17.89
2022-10-10T11:51:35.704Z,18.01
2022-10-10T11:54:09.934Z,18.05
2022-10-10T11:56:42.086Z,18.10
2022-10-10T11:59:16.415Z,18.16
2022-10-10T12:01:49.390Z,18.08
2022-10-10T12:04:18.899Z,18.21
2022-10-10T12:06:52.073Z,18.03
2022-10-10T12:09:25.462Z,18.05
2022-10-10T12:11:57.733Z,17.93
2022-10-10T12:14:29.295Z,17.88
2022-10-10T12:17:08.192Z,17.94
2022-10-10T12:19:39.428Z,17.83
2022-10-10T12:22:12.595Z,17.97
2022-10-10T12:25:07.848Z,18.07
2022-10-10T12:27:46.699Z,18.23
2022-10-10T12:30:28.617Z,18.44
2022-10-10T12:32:56.766Z,18.27
2022-10-10T12:35:43.577Z,18.34
2022-10-10T12:38:23.202Z,18.54
2022-10-10T12:41:12.012Z,18.49
2022-10-10T12:43:46.632Z,18.71
2022-10-10T12:46:27.335Z,18.61
2022-10-10T12:49:00.959Z,18.63
2022-10-10T12:51:33.072Z,18.72
2022-10-10T12:54:03.674Z,18.88
2022-10-10T12:56:37.517Z,18.74
2022-10-10T12:59:07.283Z,18.80
2022-10-10T13:01:38.066Z,19.02
2022-10-10T13:04:06.084Z,18.95
2022-10-10T13:06:39.783Z,18.74
2022-10-10T13:09:10.312Z,18.83
2022-10-10T13:11:54.544Z,18.99
2022-10-10T13:14:22.160Z,18.91
2022-10-10T13:16:49.914Z,18.84
2022-10-10T13:19:20.701Z,18.84
2022-10-10T13:21:52.132Z,18.94
2022-10-10T13:24:22.035Z,18.95
2022-10-10T13:26:52.252Z,18.96
2022-10-10T13:29:25.839Z,19.12
2022-10-10T13:31:56.052Z,18.89
2022-10-10T13:34:27.449Z,18.97
2022-10-10T13:37:00.659Z,18.93
2022-10-10T13:39:30.676Z,19.01
2022-10-10T13:41:58.908Z,19.04
2022-10-10T13:44:32.333Z,19.26
2022-10-10T13:47:00.411Z,19.24
2022-10-10T13:49:29.389Z,19.16
2022-10-10T13:52:07.269Z,19.11
2022-10-10T13:54:40.142Z,19.12
2022-10-10T13:57:15.394Z,19.11
2022-10-10T13:59:43.722Z,19.15
2022-10-10T14:02:14.559Z,19.18
2022-10-10T14:04:48.820Z,19.28
2022-10-10T14:07:22.910Z,19.48
2022-10-10T14:09:54.215Z,19.42
2022-10-10T14:12:28.444Z,19.51
2022-10-10T14:14:57.771Z,19.42
2022-10-10T14:17:25.938Z,19.36
2022-10-10T14:19:53.958Z,19.16
2022-10-10T14:22:24.097Z,19.05
2022-10-10T14:24:51.781Z,18.81
2022-10-10T14:27:27.724Z,18.82
2022-10-10T14:29:57.128Z,18.76
2022-10-10T14:32:25.198Z,18.68
2022-10-10T14:34:54.941Z,18.58
2022-10-10T14:37:26.459Z,18.54
2022-10-10T14:39:55.414Z,18.52
2022-10-10T14:42:25.354Z,18.57
2022-10-10T14:44:53.302Z,18.53
2022-10-10T14:47:22.885Z,18.52
2022-10-10T14:49:52.482Z,18.51
2022-10-10T14:52:20.261Z,18.54
2022-10-10T14:54:49.864Z,18.48
2022-10-10T14:57:17.936Z,18.56
2022-10-10T14:59:49.166Z,18.62
2022-10-10T15:02:22.956Z,18.71
2022-10-10T15:04:51.563Z,18.75
2022-10-10T15:07:19.615Z,18.59
2022-10-10T15:10:27.875Z,18.56
2022-10-10T15:12:39.563Z,18.52
2022-10-10T15:15:08.656Z,18.52
2022-10-10T15:17:36.453Z,18.53
2022-10-10T15:20:06.221Z,18.47
2022-10-10T15:22:34.040Z,18.37
2022-10-10T15:25:03.100Z,18.37
2022-10-10T15:27:32.597Z,18.26
2022-10-10T15:30:00.648Z,18.23
2022-10-10T15:32:28.637Z,18.16
2022-10-10T15:34:57.393Z,18.13
2022-10-10T15:37:25.942Z,18.06
2022-10-10T15:39:53.726Z,18.07
2022-10-10T15:42:23.607Z,18.11
2022-10-10T15:44:52.334Z,18.17
2022-10-10T15:47:21.195Z,18.21
2022-10-10T15:49:49.238Z,18.23
2022-10-10T15:52:18.868Z,18.24
2022-10-10T15:54:49.251Z,18.24
2022-10-10T15:57:18.662Z,18.18
2022-10-10T15:59:48.132Z,18.13
2022-10-10T16:02:15.794Z,18.02
2022-10-10T16:04:43.465Z,17.91
2022-10-10T16:07:29.864Z,17.85
2022-10-10T16:10:01.039Z,17.78
2022-10-10T16:12:28.912Z,17.73
2022-10-10T16:14:57.828Z,17.63
2022-10-10T16:17:25.503Z,17.54
2022-10-10T16:19:53.123Z,17.46
2022-10-10T16:22:21.137Z,17.34
2022-10-10T16:25:21.351Z,17.21
2022-10-10T16:27:37.296Z,17.09
2022-10-10T16:30:08.169Z,17.00
2022-10-10T16:32:41.766Z,16.92
2022-10-10T16:35:12.395Z,16.88
2022-10-10T16:37:40.499Z,16.93
2022-10-10T16:40:09.457Z,16.97
2022-10-10T16:42:37.251Z,17.01
2022-10-10T16:45:07.535Z,16.95
2022-10-10T16:47:35.476Z,16.93
2022-10-10T16:50:03.117Z,16.84
2022-10-10T16:52:30.770Z,16.76
2022-10-10T16:54:58.364Z,16.71
2022-10-10T16:57:27.040Z,16.65
2022-10-10T16:59:54.928Z,16.60
2022-10-10T17:02:24.953Z,16.61
2022-10-10T17:04:53.224Z,16.57
2022-10-10T17:07:20.914Z,16.58
2022-10-10T17:09:48.552Z,16.61
2022-10-10T17:12:16.359Z,16.54
2022-10-10T17:14:46.553Z,16.48
2022-10-10T17:17:14.259Z,16.45
2022-10-10T17:19:43.398Z,16.44
2022-10-10T17:22:11.319Z,16.44
2022-10-10T17:24:39.005Z,16.44
2022-10-10T17:27:06.717Z,16.50
2022-10-10T17:29:34.492Z,16.56
2022-10-10T17:32:06.334Z,16.59
2022-10-10T17:34:35.242Z,16.66
2022-10-10T17:37:05.916Z,16.80
2022-10-10T17:39:34.107Z,16.99
2022-10-10T17:42:01.809Z,17.05
2022-10-10T17:44:29.522Z,17.17
2022-10-10T17:46:57.165Z,17.29
2022-10-10T17:49:25.102Z,17.25
2022-10-10T17:51:52.746Z,17.22
2022-10-10T17:54:21.799Z,17.19
2022-10-10T17:56:49.371Z,17.30
2022-10-10T17:59:17.029Z,17.32
2022-10-10T18:01:44.741Z,17.33
2022-10-10T18:04:16.296Z,17.18
2022-10-10T18:06:44.003Z,16.94
2022-10-10T18:09:12.154Z,16.69
2022-10-10T18:11:42.185Z,16.68
2022-10-10T18:14:09.884Z,16.48
2022-10-10T18:16:37.974Z,16.32
2022-10-10T18:19:07.310Z,16.22
2022-10-10T18:21:36.121Z,16.18
2022-10-10T18:24:04.024Z,16.09
2022-10-10T18:26:32.531Z,16.08
2022-10-10T18:29:01.465Z,16.07
2022-10-10T18:31:31.015Z,16.12
2022-10-10T18:33:58.801Z,16.10
2022-10-10T18:36:29.409Z,16.09
2022-10-10T18:38:59.540Z,16.17
2022-10-10T18:41:33.698Z,16.31
2022-10-10T18:44:07.598Z,16.20
2022-10-10T18:46:36.063Z,16.15
2022-10-10T18:49:05.740Z,16.09
2022-10-10T18:51:33.984Z,16.10
2022-10-10T18:54:03.849Z,16.04
2022-10-10T18:56:40.621Z,16.03
2022-10-10T18:59:13.205Z,16.03
2022-10-10T19:01:41.329Z,16.06
2022-10-10T19:04:11.532Z,16.03
2022-10-10T19:06:41.652Z,16.02
2022-10-10T19:09:11.734Z,15.98
2022-10-10T19:11:41.436Z,15.96
2022-10-10T19:14:12.363Z,15.93
2022-10-10T19:16:40.986Z,15.97
2022-10-10T19:19:08.730Z,15.95
2022-10-10T19:21:38.567Z,15.91
2022-10-10T19:24:08.626Z,15.93
2022-10-10T19:26:37.149Z,15.96
2022-10-10T19:29:07.354Z,15.89
2022-10-10T19:31:37.373Z,15.90
2022-10-10T19:34:05.760Z,15.83
2022-10-10T19:36:36.153Z,15.81
2022-10-10T19:39:06.501Z,15.77
2022-10-10T19:41:35.916Z,15.69
2022-10-10T19:44:05.753Z,15.61
2022-10-10T19:46:37.222Z,15.61
2022-10-10T19:49:09.020Z,15.59
2022-10-10T19:51:36.993Z,15.61
2022-10-10T19:54:04.781Z,15.60
2022-10-10T19:56:32.454Z,15.58
2022-10-10T19:59:04.132Z,15.59
2022-10-10T20:01:32.346Z,15.59
2022-10-10T20:04:00.410Z,15.58
2022-10-10T20:06:29.641Z,15.58
2022-10-10T20:08:57.282Z,15.54
2022-10-10T20:11:26.195Z,15.58
2022-10-10T20:13:55.164Z,15.58
2022-10-10T20:16:23.769Z,15.58
2022-10-10T20:18:51.649Z,15.56
2022-10-10T20:21:22.025Z,15.69
2022-10-10T20:23:51.503Z,15.67
2022-10-10T20:26:22.367Z,15.63
2022-10-10T20:28:51.071Z,15.66
2022-10-10T20:31:21.096Z,15.58
2022-10-10T20:33:49.920Z,15.61
2022-10-10T20:36:18.678Z,15.62
2022-10-10T20:38:46.672Z,15.62
2022-10-10T20:41:15.959Z,15.59
2022-10-10T20:43:43.785Z,15.60
2022-10-10T20:46:13.397Z,15.59
2022-10-10T20:48:42.109Z,15.53
2022-10-10T20:51:11.924Z,15.50
2022-10-10T20:53:42.376Z,15.48
2022-10-10T20:56:12.846Z,15.50
2022-10-10T20:58:41.827Z,15.67
2022-10-10T21:01:12.456Z,15.76
2022-10-10T21:03:41.673Z,15.64
2022-10-10T21:06:11.532Z,15.58
2022-10-10T21:08:40.005Z,15.53
2022-10-10T21:11:09.589Z,15.50
2022-10-10T21:13:39.809Z,15.56
2022-10-10T21:16:11.344Z,15.59
2022-10-10T21:18:39.561Z,15.65
2022-10-10T21:21:08.334Z,15.67
2022-10-10T21:23:37.461Z,15.73
2022-10-10T21:26:06.920Z,15.72
2022-10-10T21:28:35.475Z,15.69
2022-10-10T21:31:03.871Z,15.72
2022-10-10T21:33:33.027Z,15.68
2022-10-10T21:36:01.735Z,15.65
2022-10-10T21:38:30.474Z,15.69
2022-10-10T21:40:58.265Z,15.73
2022-10-10T21:43:26.140Z,15.65
2022-10-10T21:45:53.867Z,15.53
2022-10-10T21:48:21.588Z,15.54
2022-10-10T21:50:50.599Z,15.51
2022-10-10T21:53:18.408Z,15.45
2022-10-10T21:55:46.110Z,15.44
2022-10-10T21:58:13.787Z,15.44
2022-10-10T22:00:41.576Z,15.47
2022-10-10T22:03:09.452Z,15.47
2022-10-10T22:05:37.650Z,15.40
2022-10-10T22:08:06.730Z,15.32
2022-10-10T22:10:35.341Z,15.40
2022-10-10T22:13:04.032Z,15.40
2022-10-10T22:15:31.737Z,15.47
2022-10-10T22:17:59.309Z,15.34
2022-10-10T22:20:26.917Z,15.32
2022-10-10T22:22:54.543Z,15.24
2022-10-10T22:25:23.580Z,15.19
2022-10-10T22:27:55.103Z,15.25
2022-10-10T22:30:24.641Z,15.23
2022-10-10T22:32:52.233Z,15.15
2022-10-10T22:35:19.833Z,15.11
2022-10-10T22:37:47.474Z,15.24
2022-10-10T22:40:16.370Z,15.33
2022-10-10T22:42:45.992Z,15.25
2022-10-10T22:45:13.565Z,15.20
2022-10-10T22:47:41.209Z,15.13
2022-10-10T22:50:10.000Z,15.04
2022-10-10T22:52:38.090Z,15.07
2022-10-10T22:55:07.549Z,15.13
2022-10-10T22:57:35.771Z,15.17
2022-10-10T23:00:06.009Z,15.19
2022-10-10T23:02:33.656Z,15.12
2022-10-10T23:05:02.818Z,15.17
2022-10-10T23:07:30.491Z,15.17
2022-10-10T23:09:58.082Z,15.21
2022-10-10T23:12:25.965Z,15.22
2022-10-10T23:14:53.696Z,15.25
2022-10-10T23:17:22.571Z,15.15
2022-10-10T23:19:50.164Z,15.21
2022-10-10T23:22:18.418Z,15.17
2022-10-10T23:24:46.995Z,15.20
2022-10-10T23:27:14.719Z,15.12
2022-10-10T23:29:42.480Z,14.97
2022-10-10T23:32:10.090Z,14.92
2022-10-10T23:34:39.015Z,14.89
2022-10-10T23:37:09.007Z,14.87
2022-10-10T23:39:36.657Z,14.76
2022-10-10T23:42:05.438Z,14.77
2022-10-10T23:44:33.111Z,14.64
2022-10-10T23:47:00.659Z,14.54
2022-10-10T23:49:28.541Z,14.33
2022-10-10T23:51:57.622Z,14.27
2022-10-10T23:54:25.342Z,14.13
2022-10-10T23:56:53.266Z,14.02
2022-10-10T23:59:20.915Z,13.84
